Terminal Aerodrome Forecast
Issued by NWS Flagstaff, AZ

Home | Current Version | Previous Version | Text Only | Print | Product List | Glossary On
Versions: 1 2 3 4 5 6 7 8 9 10 11 12 13 14 15
994
FTUS45 KFGZ 281133
TAFINW
TAF
KINW 281133Z 2812/2912 VRB06KT P6SM SCT070 SCT120
     FM282000 16010KT P6SM SCT070 BKN090
      TEMPO 2820/2823 VRB10G20KT TSRA BKN070CB
     FM290300 VRB05KT P6SM BKN100=

USA.gov is the U.S. government's official web portal to all federal, state and local government web resources and services.